EJU48FH LFBO-LIMC
Flight info
| Callsign | EJU48FH |
|---|---|
| Flight time | N/A |
| Altitude | 36000 |
| Route | MEN DCT NINUN DCT LATAM DCT ROMAM DCT ETIDO DCT NEDRU DCT RILIP DCT EMMEF DCT LAPRI DCT MOGBO DCT TOP M135 ASTIG |
| Aircraft | A21N/M-SDE2E3FGHIJ1RWXYZ/LB1 |
Departure
| Time | 2026-05-05 18:52 |
|---|---|
| Airport | Toulouse-Blagnac Airport (LFBO) |
Arrival
| Time | N/A |
|---|---|
| Airport | Milan Malpensa International Airport (LIMC) |
| Time | Latitude | Longitude | Altitude | Speed | Heading |
|---|---|---|---|---|---|
| 2026-05-05 18:37 | 43.62142 | 1.38028 | 494 ft | 0 kts | 230° |
| 2026-05-05 18:47 | 43.62140 | 1.38025 | 487 ft | 2 kts | 228° |
| 2026-05-05 18:47 | 43.62116 | 1.38018 | 487 ft | 5 kts | 176° |
| 2026-05-05 18:47 | 43.62070 | 1.38045 | 491 ft | 9 kts | 153° |
| 2026-05-05 18:47 | 43.62029 | 1.38047 | 492 ft | 9 kts | 181° |
| 2026-05-05 18:48 | 43.61962 | 1.38085 | 489 ft | 11 kts | 148° |
| 2026-05-05 18:48 | 43.61899 | 1.38120 | 491 ft | 9 kts | 175° |
| 2026-05-05 18:48 | 43.61843 | 1.38104 | 486 ft | 8 kts | 194° |
| 2026-05-05 18:48 | 43.61796 | 1.38109 | 494 ft | 6 kts | 160° |
| 2026-05-05 18:49 | 43.61762 | 1.38135 | 492 ft | 5 kts | 150° |
| 2026-05-05 18:49 | 43.61734 | 1.38158 | 487 ft | 4 kts | 149° |
| 2026-05-05 18:49 | 43.61711 | 1.38173 | 494 ft | 3 kts | 163° |
| 2026-05-05 18:49 | 43.61659 | 1.38157 | 489 ft | 7 kts | 210° |
| 2026-05-05 18:50 | 43.61627 | 1.38115 | 491 ft | 6 kts | 229° |
| 2026-05-05 18:50 | 43.61598 | 1.38059 | 483 ft | 8 kts | 246° |
| 2026-05-05 18:50 | 43.61611 | 1.37990 | 488 ft | 7 kts | 294° |
| 2026-05-05 18:50 | 43.61626 | 1.37963 | 484 ft | 0 kts | 316° |
| 2026-05-05 18:51 | 43.61809 | 1.37762 | 489 ft | 69 kts | 322° |
| 2026-05-05 18:51 | 43.62373 | 1.37156 | 484 ft | 135 kts | 320° |
| 2026-05-05 18:51 | 43.63285 | 1.36230 | 649 ft | 181 kts | 327° |
| 2026-05-05 18:52 | 43.64264 | 1.35478 | 1383 ft | 160 kts | 327° |
| 2026-05-05 18:52 | 43.65245 | 1.34631 | 2031 ft | 165 kts | 322° |
| 2026-05-05 18:52 | 43.66164 | 1.33637 | 2670 ft | 177 kts | 316° |
| 2026-05-05 18:52 | 43.67136 | 1.32398 | 2985 ft | 205 kts | 316° |
| 2026-05-05 18:53 | 43.68542 | 1.31464 | 3064 ft | 249 kts | 349° |
| 2026-05-05 18:53 | 43.70294 | 1.31742 | 3964 ft | 256 kts | 21° |
| 2026-05-05 18:53 | 43.71716 | 1.33228 | 5053 ft | 263 kts | 51° |
| 2026-05-05 18:53 | 43.72676 | 1.35426 | 5928 ft | 269 kts | 56° |
| 2026-05-05 18:54 | 43.73700 | 1.37570 | 6809 ft | 272 kts | 53° |
| 2026-05-05 18:54 | 43.74808 | 1.39735 | 7605 ft | 278 kts | 53° |
| 2026-05-05 18:54 | 43.75965 | 1.41954 | 8275 ft | 290 kts | 53° |
| 2026-05-05 18:54 | 43.77153 | 1.44242 | 9113 ft | 294 kts | 53° |
| 2026-05-05 18:55 | 43.78355 | 1.46572 | 9939 ft | 299 kts | 54° |
| 2026-05-05 18:55 | 43.79582 | 1.48965 | 10457 ft | 314 kts | 54° |
| 2026-05-05 18:55 | 43.80882 | 1.51520 | 10788 ft | 335 kts | 54° |
| 2026-05-05 18:55 | 43.82239 | 1.54210 | 11157 ft | 353 kts | 54° |
| 2026-05-05 18:56 | 43.83680 | 1.57076 | 11578 ft | 370 kts | 54° |
| 2026-05-05 18:56 | 43.85178 | 1.60063 | 12026 ft | 384 kts | 55° |
| 2026-05-05 18:56 | 43.86202 | 1.62109 | 12337 ft | 393 kts | 55° |
| 2026-05-05 18:56 | 43.87775 | 1.65256 | 13032 ft | 398 kts | 55° |
| 2026-05-05 18:57 | 43.89882 | 1.69481 | 13958 ft | 405 kts | 55° |
| 2026-05-05 18:57 | 43.90967 | 1.71662 | 14411 ft | 407 kts | 56° |
| 2026-05-05 18:57 | 43.92584 | 1.74914 | 15073 ft | 411 kts | 56° |
| 2026-05-05 18:57 | 43.94216 | 1.78202 | 15729 ft | 415 kts | 56° |
| 2026-05-05 18:58 | 43.95863 | 1.81527 | 16372 ft | 419 kts | 56° |
| 2026-05-05 18:58 | 43.97499 | 1.84835 | 17014 ft | 423 kts | 56° |
| 2026-05-05 18:58 | 43.99173 | 1.88225 | 17641 ft | 427 kts | 57° |
| 2026-05-05 18:58 | 44.00857 | 1.91638 | 18256 ft | 431 kts | 57° |
| 2026-05-05 18:59 | 44.02570 | 1.95103 | 18706 ft | 437 kts | 57° |
| 2026-05-05 18:59 | 44.04287 | 1.98591 | 19274 ft | 439 kts | 57° |
| 2026-05-05 18:59 | 44.06014 | 2.02108 | 19833 ft | 441 kts | 57° |
| 2026-05-05 18:59 | 44.07728 | 2.05602 | 20378 ft | 444 kts | 58° |
| 2026-05-05 19:00 | 44.09475 | 2.09166 | 20948 ft | 446 kts | 58° |
| 2026-05-05 19:00 | 44.11226 | 2.12747 | 21469 ft | 449 kts | 58° |
| 2026-05-05 19:00 | 44.12991 | 2.16360 | 22011 ft | 451 kts | 58° |
| 2026-05-05 19:00 | 44.14761 | 2.19988 | 22532 ft | 454 kts | 58° |
| 2026-05-05 19:01 | 44.16542 | 2.23645 | 23053 ft | 456 kts | 58° |
| 2026-05-05 19:01 | 44.18328 | 2.27316 | 23560 ft | 459 kts | 58° |
| 2026-05-05 19:01 | 44.20122 | 2.31017 | 23881 ft | 464 kts | 58° |
| 2026-05-05 19:01 | 44.21914 | 2.34726 | 24176 ft | 469 kts | 58° |
| 2026-05-05 19:02 | 44.23744 | 2.38511 | 24567 ft | 472 kts | 58° |
| 2026-05-05 19:02 | 44.25593 | 2.42334 | 24943 ft | 476 kts | 58° |
| 2026-05-05 19:02 | 44.27453 | 2.46186 | 25304 ft | 479 kts | 58° |
| 2026-05-05 19:02 | 44.29326 | 2.50069 | 25663 ft | 483 kts | 58° |
| 2026-05-05 19:03 | 44.31206 | 2.53971 | 26035 ft | 486 kts | 58° |
| 2026-05-05 19:03 | 44.33099 | 2.57904 | 26369 ft | 489 kts | 58° |
| 2026-05-05 19:03 | 44.34973 | 2.61803 | 26841 ft | 490 kts | 58° |
| 2026-05-05 19:03 | 44.36875 | 2.65763 | 27310 ft | 490 kts | 58° |
| 2026-05-05 19:04 | 44.38782 | 2.69732 | 27633 ft | 494 kts | 59° |
| 2026-05-05 19:04 | 44.40702 | 2.73735 | 28002 ft | 496 kts | 59° |
| 2026-05-05 19:04 | 44.42623 | 2.77752 | 28605 ft | 496 kts | 59° |
| 2026-05-05 19:04 | 44.44548 | 2.81781 | 29056 ft | 496 kts | 59° |
| 2026-05-05 19:05 | 44.46444 | 2.85759 | 29505 ft | 497 kts | 59° |
| 2026-05-05 19:05 | 44.48366 | 2.89798 | 29962 ft | 497 kts | 59° |
| 2026-05-05 19:05 | 44.50285 | 2.93841 | 30354 ft | 497 kts | 59° |
| 2026-05-05 19:05 | 44.52201 | 2.97892 | 30733 ft | 497 kts | 59° |
| 2026-05-05 19:06 | 44.54115 | 3.01946 | 31144 ft | 497 kts | 59° |
| 2026-05-05 19:06 | 44.56021 | 3.05988 | 31496 ft | 497 kts | 59° |
| 2026-05-05 19:06 | 44.57922 | 3.10018 | 31660 ft | 502 kts | 59° |
| 2026-05-05 19:06 | 44.59836 | 3.14099 | 32127 ft | 499 kts | 59° |
| 2026-05-05 19:07 | 44.61677 | 3.18217 | 32537 ft | 497 kts | 61° |
| 2026-05-05 19:07 | 44.63431 | 3.22411 | 32907 ft | 497 kts | 62° |
| 2026-05-05 19:07 | 44.65139 | 3.26625 | 33232 ft | 497 kts | 62° |
| 2026-05-05 19:07 | 44.66828 | 3.30859 | 33578 ft | 496 kts | 62° |
| 2026-05-05 19:08 | 44.68490 | 3.35060 | 33909 ft | 496 kts | 62° |
| 2026-05-05 19:08 | 44.70165 | 3.39311 | 34191 ft | 496 kts | 62° |
| 2026-05-05 19:08 | 44.71834 | 3.43547 | 34474 ft | 495 kts | 62° |
| 2026-05-05 19:08 | 44.73504 | 3.47787 | 34766 ft | 494 kts | 62° |
| 2026-05-05 19:09 | 44.75173 | 3.52020 | 35037 ft | 493 kts | 62° |
| 2026-05-05 19:09 | 44.76842 | 3.56237 | 35304 ft | 493 kts | 62° |
| 2026-05-05 19:09 | 44.78512 | 3.60448 | 35553 ft | 492 kts | 62° |
| 2026-05-05 19:09 | 44.79908 | 3.64803 | 35741 ft | 483 kts | 75° |
| 2026-05-05 19:10 | 44.81566 | 3.73861 | 35879 ft | 481 kts | 79° |
| 2026-05-05 19:10 | 44.83035 | 3.83171 | 35891 ft | 489 kts | 79° |
| 2026-05-05 19:11 | 44.84505 | 3.92470 | 35902 ft | 486 kts | 79° |
| 2026-05-05 19:11 | 44.86004 | 4.01752 | 35902 ft | 484 kts | 79° |
| 2026-05-05 19:12 | 44.87528 | 4.11016 | 35904 ft | 486 kts | 79° |
| 2026-05-05 19:12 | 44.89082 | 4.20335 | 35874 ft | 487 kts | 79° |
| 2026-05-05 19:13 | 44.90651 | 4.29615 | 35894 ft | 486 kts | 79° |
| 2026-05-05 19:13 | 44.92215 | 4.38879 | 35905 ft | 487 kts | 79° |
| 2026-05-05 19:14 | 44.93786 | 4.48171 | 35900 ft | 485 kts | 79° |
| 2026-05-05 19:14 | 44.95342 | 4.57390 | 35894 ft | 485 kts | 79° |
| 2026-05-05 19:15 | 44.96912 | 4.66706 | 35888 ft | 489 kts | 79° |
| 2026-05-05 19:15 | 44.98471 | 4.76004 | 35903 ft | 489 kts | 79° |
| 2026-05-05 19:16 | 45.00039 | 4.85393 | 35891 ft | 486 kts | 79° |
| 2026-05-05 19:16 | 45.01575 | 4.94644 | 35889 ft | 487 kts | 79° |
| 2026-05-05 19:17 | 45.03128 | 5.04017 | 35885 ft | 492 kts | 80° |
| 2026-05-05 19:17 | 45.04688 | 5.13509 | 35890 ft | 496 kts | 80° |
| 2026-05-05 19:18 | 45.06242 | 5.23015 | 35901 ft | 492 kts | 80° |
| 2026-05-05 19:18 | 45.07762 | 5.32383 | 35911 ft | 492 kts | 80° |
| 2026-05-05 19:19 | 45.09110 | 5.41725 | 35896 ft | 488 kts | 91° |
| 2026-05-05 19:19 | 45.09029 | 5.51344 | 35911 ft | 490 kts | 98° |
| 2026-05-05 19:20 | 45.08591 | 5.60950 | 35920 ft | 487 kts | 98° |
| 2026-05-05 19:20 | 45.08115 | 5.70429 | 35910 ft | 484 kts | 98° |
| 2026-05-05 19:21 | 45.07637 | 5.79950 | 35885 ft | 486 kts | 99° |
| 2026-05-05 19:21 | 45.07064 | 5.89513 | 35908 ft | 488 kts | 100° |
| 2026-05-05 19:22 | 45.06444 | 5.99055 | 35907 ft | 484 kts | 100° |
| 2026-05-05 19:22 | 45.05805 | 6.08569 | 35915 ft | 486 kts | 100° |
| 2026-05-05 19:23 | 45.05155 | 6.18046 | 35911 ft | 487 kts | 101° |
| 2026-05-05 19:23 | 45.04492 | 6.27601 | 35923 ft | 487 kts | 101° |
| 2026-05-05 19:24 | 45.03824 | 6.37081 | 35927 ft | 486 kts | 101° |
| 2026-05-05 19:24 | 45.03145 | 6.46591 | 35933 ft | 486 kts | 101° |
| 2026-05-05 19:25 | 45.02462 | 6.56113 | 35895 ft | 485 kts | 101° |
| 2026-05-05 19:25 | 45.01771 | 6.65638 | 35930 ft | 489 kts | 101° |
| 2026-05-05 19:26 | 45.01074 | 6.75206 | 35947 ft | 488 kts | 101° |
| 2026-05-05 19:26 | 45.00381 | 6.84705 | 35946 ft | 485 kts | 101° |
| 2026-05-05 19:27 | 45.00032 | 6.89467 | 35748 ft | 487 kts | 102° |
| 2026-05-05 19:27 | 44.99690 | 6.94174 | 35159 ft | 488 kts | 102° |
| 2026-05-05 19:27 | 44.99344 | 6.98969 | 34174 ft | 492 kts | 103° |
| 2026-05-05 19:27 | 44.98989 | 7.03804 | 33149 ft | 494 kts | 103° |
| 2026-05-05 19:28 | 44.98617 | 7.08604 | 32537 ft | 486 kts | 103° |
| 2026-05-05 19:28 | 44.98308 | 7.13330 | 31892 ft | 481 kts | 99° |
| 2026-05-05 19:28 | 44.98156 | 7.18025 | 31261 ft | 477 kts | 98° |
| 2026-05-05 19:28 | 44.98093 | 7.22679 | 30673 ft | 471 kts | 96° |
| 2026-05-05 19:29 | 44.98078 | 7.27278 | 30112 ft | 465 kts | 96° |
| 2026-05-05 19:29 | 44.98090 | 7.31820 | 29436 ft | 459 kts | 95° |
| 2026-05-05 19:29 | 44.98094 | 7.36308 | 28753 ft | 451 kts | 98° |
| 2026-05-05 19:29 | 44.97865 | 7.40628 | 28059 ft | 442 kts | 102° |
| 2026-05-05 19:30 | 44.97496 | 7.44913 | 27415 ft | 435 kts | 104° |
| 2026-05-05 19:30 | 44.97069 | 7.49102 | 26784 ft | 428 kts | 104° |
| 2026-05-05 19:30 | 44.96609 | 7.53240 | 26156 ft | 422 kts | 105° |
| 2026-05-05 19:30 | 44.96134 | 7.57311 | 25547 ft | 417 kts | 105° |
| 2026-05-05 19:31 | 44.95650 | 7.61322 | 24944 ft | 411 kts | 105° |
| 2026-05-05 19:31 | 44.95164 | 7.65278 | 24320 ft | 407 kts | 105° |
| 2026-05-05 19:31 | 44.94679 | 7.69198 | 23690 ft | 404 kts | 105° |
| 2026-05-05 19:31 | 44.94191 | 7.73087 | 23043 ft | 399 kts | 105° |
| 2026-05-05 19:32 | 44.93707 | 7.76930 | 22375 ft | 394 kts | 105° |
| 2026-05-05 19:32 | 44.93237 | 7.80724 | 21704 ft | 391 kts | 103° |
| 2026-05-05 19:32 | 44.93123 | 7.84523 | 21038 ft | 394 kts | 93° |
| 2026-05-05 19:32 | 44.93277 | 7.88423 | 20418 ft | 391 kts | 90° |
| 2026-05-05 19:33 | 44.93521 | 7.92181 | 19804 ft | 389 kts | 88° |
| 2026-05-05 19:33 | 44.93820 | 7.95968 | 19204 ft | 386 kts | 86° |
| 2026-05-05 19:33 | 44.94472 | 7.99641 | 18558 ft | 389 kts | 68° |
| 2026-05-05 19:33 | 44.95877 | 8.02905 | 17953 ft | 388 kts | 55° |
| 2026-05-05 19:34 | 44.97513 | 8.05910 | 17335 ft | 384 kts | 52° |
| 2026-05-05 19:34 | 44.99173 | 8.08838 | 16732 ft | 379 kts | 52° |
| 2026-05-05 19:34 | 45.00816 | 8.11736 | 16181 ft | 375 kts | 52° |
| 2026-05-05 19:35 | 45.03965 | 8.17457 | 15068 ft | 366 kts | 53° |
| 2026-05-05 19:35 | 45.05485 | 8.20325 | 14534 ft | 361 kts | 54° |
| 2026-05-05 19:35 | 45.06958 | 8.23176 | 14070 ft | 355 kts | 54° |
| 2026-05-05 19:35 | 45.08378 | 8.25978 | 13769 ft | 344 kts | 54° |
| 2026-05-05 19:36 | 45.09743 | 8.28716 | 13279 ft | 338 kts | 55° |
| 2026-05-05 19:36 | 45.11082 | 8.31435 | 12748 ft | 334 kts | 56° |
| 2026-05-05 19:36 | 45.12399 | 8.34137 | 12223 ft | 330 kts | 56° |
| 2026-05-05 19:36 | 45.13675 | 8.36778 | 11730 ft | 327 kts | 56° |
| 2026-05-05 19:37 | 45.14947 | 8.39431 | 11229 ft | 323 kts | 56° |
| 2026-05-05 19:37 | 45.16199 | 8.42056 | 10728 ft | 319 kts | 56° |
| 2026-05-05 19:37 | 45.17432 | 8.44652 | 10260 ft | 316 kts | 57° |
| 2026-05-05 19:37 | 45.18652 | 8.47230 | 9791 ft | 312 kts | 57° |
| 2026-05-05 19:38 | 45.19834 | 8.49732 | 9566 ft | 298 kts | 57° |
| 2026-05-05 19:38 | 45.21171 | 8.51879 | 9328 ft | 286 kts | 34° |
| 2026-05-05 19:38 | 45.22944 | 8.52960 | 9041 ft | 274 kts | 6° |
| 2026-05-05 19:38 | 45.24778 | 8.52772 | 8700 ft | 261 kts | 338° |
| 2026-05-05 19:39 | 45.26456 | 8.51818 | 8277 ft | 258 kts | 335° |
| 2026-05-05 19:39 | 45.28121 | 8.50885 | 7873 ft | 255 kts | 339° |
| 2026-05-05 19:39 | 45.29829 | 8.50191 | 7459 ft | 254 kts | 347° |
| 2026-05-05 19:39 | 45.31556 | 8.50029 | 7014 ft | 254 kts | 12° |
| 2026-05-05 19:40 | 45.33125 | 8.51056 | 6642 ft | 246 kts | 44° |
| 2026-05-05 19:40 | 45.34060 | 8.52994 | 6335 ft | 234 kts | 77° |
| 2026-05-05 19:40 | 45.34146 | 8.55255 | 6167 ft | 228 kts | 101° |
| 2026-05-05 19:40 | 45.33915 | 8.57463 | 6077 ft | 223 kts | 98° |
| 2026-05-05 19:41 | 45.33846 | 8.59654 | 6040 ft | 226 kts | 89° |
| 2026-05-05 19:41 | 45.34037 | 8.61874 | 6030 ft | 226 kts | 80° |
| 2026-05-05 19:41 | 45.34192 | 8.63358 | 6018 ft | 224 kts | 97° |
| 2026-05-05 19:41 | 45.33416 | 8.65985 | 5817 ft | 223 kts | 142° |
| 2026-05-05 19:42 | 45.32045 | 8.66945 | 5285 ft | 223 kts | 176° |
| 2026-05-05 19:42 | 45.30491 | 8.66924 | 4832 ft | 221 kts | 182° |
| 2026-05-05 19:42 | 45.29491 | 8.66894 | 4690 ft | 213 kts | 179° |
| 2026-05-05 19:42 | 45.28021 | 8.66970 | 4344 ft | 213 kts | 176° |
| 2026-05-05 19:43 | 45.25954 | 8.67175 | 3171 ft | 243 kts | 175° |
| 2026-05-05 19:43 | 45.24067 | 8.67377 | 612 ft | 322 kts | 175° |